Baotou Airport


Codes: ZBOW/BAV
Name: Baotou Airport
City: Baotou
Country: China
Elevation: 3321 ft.
Wikipedia:

Photos at Baotou Airport


   Photos courtesy of SpottingLog. You can add your own sightings and photos by signing up for a free trial today.



No photos found.

Weather at Baotou Airport


Time (UTC)DescriptionTempratureWindCloud coverageVisibilityPressureHumidity
13-Jun-2024 03:00Overcast Clouds31°C9 mph, NW91%10000m999hPa23%
13-Jun-2024 06:00Overcast Clouds31°C18 mph, NW93%10000m999hPa21%
13-Jun-2024 09:00Light Rain31°C18 mph, N97%10000m998hPa23%
13-Jun-2024 12:00Overcast Clouds28°C16 mph, NE100%10000m1001hPa27%
13-Jun-2024 15:00Overcast Clouds25°C11 mph, NE100%10000m1003hPa31%
13-Jun-2024 18:00Broken Clouds23°C9 mph, N68%10000m1004hPa32%
13-Jun-2024 21:00Clear Sky22°C13 mph, N8%10000m1005hPa33%
14-Jun-2024 00:00Clear Sky23°C11 mph, NE4%10000m1007hPa25%
14-Jun-2024 03:00Clear Sky26°C11 mph, N0%10000m1007hPa18%
14-Jun-2024 06:00Clear Sky28°C13 mph, N0%10000m1005hPa15%
14-Jun-2024 09:00Clear Sky28°C16 mph, N1%10000m1005hPa16%
14-Jun-2024 12:00Few Clouds25°C16 mph, NE23%10000m1007hPa19%
14-Jun-2024 15:00Few Clouds23°C13 mph, NE17%10000m1009hPa20%
14-Jun-2024 18:00Clear Sky21°C7 mph, E10%10000m1010hPa26%
14-Jun-2024 21:00Scattered Clouds18°C9 mph, SE42%10000m1010hPa30%
15-Jun-2024 00:00Scattered Clouds20°C7 mph, SE46%10000m1011hPa29%
15-Jun-2024 03:00Broken Clouds24°C2 mph, S83%10000m1010hPa23%
15-Jun-2024 06:00Overcast Clouds27°C7 mph, SW89%10000m1007hPa17%
15-Jun-2024 09:00Broken Clouds29°C9 mph, SW70%10000m1005hPa15%
15-Jun-2024 12:00Broken Clouds27°C11 mph, W80%10000m1006hPa18%
15-Jun-2024 15:00Broken Clouds25°C9 mph, N56%10000m1007hPa20%
15-Jun-2024 18:00Broken Clouds23°C7 mph, NE77%10000m1008hPa21%
15-Jun-2024 21:00Scattered Clouds22°C7 mph, N39%10000m1009hPa23%
16-Jun-2024 00:00Scattered Clouds24°C7 mph, N50%10000m1010hPa19%
16-Jun-2024 03:00Few Clouds28°C7 mph, N16%10000m1009hPa16%
16-Jun-2024 06:00Clear Sky30°C7 mph, N8%10000m1007hPa13%
16-Jun-2024 09:00Clear Sky31°C7 mph, N0%10000m1005hPa11%
16-Jun-2024 12:00Clear Sky29°C9 mph, NE0%10000m1006hPa13%
16-Jun-2024 15:00Clear Sky26°C9 mph, NE0%10000m1008hPa17%
16-Jun-2024 18:00Clear Sky24°C7 mph, E0%10000m1008hPa19%
16-Jun-2024 21:00Clear Sky22°C7 mph, E0%10000m1009hPa22%
17-Jun-2024 00:00Clear Sky25°C7 mph, SE1%10000m1009hPa21%
17-Jun-2024 03:00Clear Sky30°C4 mph, S6%10000m1008hPa15%
17-Jun-2024 06:00Scattered Clouds32°C2 mph, SW39%10000m1005hPa10%
17-Jun-2024 09:00Broken Clouds33°C2 mph, N62%10000m1003hPa9%
17-Jun-2024 12:00Broken Clouds31°C4 mph, NE81%10000m1003hPa11%
17-Jun-2024 15:00Scattered Clouds28°C7 mph, E33%10000m1003hPa12%
17-Jun-2024 18:00Scattered Clouds26°C9 mph, E29%10000m1003hPa15%
17-Jun-2024 21:00Broken Clouds24°C9 mph, E59%10000m1003hPa16%
18-Jun-2024 00:00Broken Clouds27°C11 mph, E75%10000m1003hPa18%